Time;durP1;ratioP1;P1;durP2;ratioP2;P2;SDS_P1;SDS_P2;PMS_P1;PMS_P2;Temp;Humidity;BMP_temperature;BMP_pressure;BME280_temperature;BME280_humidity;BME280_pressure;Samples;Min_cycle;Max_cycle;Signal;HPM_P1;HPM_P2
2020/12/16 00:00:31;;;;;;;192.52;34.78;;;;;;;;;;5044251;28;20178;-74
2020/12/16 00:02:56;;;;;;;122.55;31.45;;;;;;;;;;5038324;28;20209;-74
2020/12/16 00:05:22;;;;;;;202.93;36.40;;;;;;;;;;5037958;28;20228;-74
2020/12/16 00:07:47;;;;;;;42.63;22.87;;;;;;;;;;5042667;28;20559;-74
2020/12/16 00:10:12;;;;;;;53.97;23.13;;;;;;;;;;5044412;28;20186;-74
2020/12/16 00:12:40;;;;;;;79.13;26.97;;;;;;;;;;5044268;28;20209;-74
2020/12/16 00:15:06;;;;;;;74.40;26.40;;;;;;;;;;5043271;28;20178;-74
2020/12/16 00:17:31;;;;;;;115.93;29.93;;;;;;;;;;5047241;28;20218;-74
2020/12/16 00:19:57;;;;;;;84.77;29.37;;;;;;;;;;5047127;28;20198;-74
2020/12/16 00:22:22;;;;;;;109.23;31.90;;;;;;;;;;5050158;28;20915;-74
2020/12/16 00:24:47;;;;;;;55.93;26.80;;;;;;;;;;5042090;28;20624;-74
2020/12/16 00:27:12;;;;;;;66.70;25.73;;;;;;;;;;5044733;28;20211;-74
2020/12/16 00:29:38;;;;;;;78.87;28.50;;;;;;;;;;5048322;28;20198;-74
2020/12/16 00:32:04;;;;;;;75.70;27.37;;;;;;;;;;5049697;28;20768;-74
2020/12/16 00:34:29;;;;;;;91.27;28.00;;;;;;;;;;5051892;28;20256;-74
2020/12/16 00:36:54;;;;;;;64.23;26.43;;;;;;;;;;5040964;28;20301;-74
2020/12/16 00:39:19;;;;;;;73.93;27.17;;;;;;;;;;5049324;28;20602;-74
2020/12/16 00:41:45;;;;;;;74.00;28.48;;;;;;;;;;5049603;28;20264;-74
2020/12/16 00:44:10;;;;;;;75.30;28.87;;;;;;;;;;5046216;28;20694;-74
2020/12/16 00:46:35;;;;;;;85.70;31.27;;;;;;;;;;5047779;28;20194;-75
2020/12/16 00:49:00;;;;;;;63.47;28.83;;;;;;;;;;5045099;28;20208;-74
2020/12/16 00:51:25;;;;;;;79.77;29.33;;;;;;;;;;5048590;28;20178;-74
2020/12/16 00:53:50;;;;;;;82.73;31.10;;;;;;;;;;5049487;28;20216;-74
2020/12/16 00:56:16;;;;;;;94.93;31.77;;;;;;;;;;5045106;28;20209;-74
2020/12/16 00:58:41;;;;;;;90.60;31.40;;;;;;;;;;5040438;28;20549;-74
2020/12/16 01:01:07;;;;;;;89.27;29.80;;;;;;;;;;5040977;28;20189;-74
2020/12/16 01:03:32;;;;;;;65.93;28.93;;;;;;;;;;5045072;28;20205;-74
2020/12/16 01:05:58;;;;;;;75.50;28.33;;;;;;;;;;5043515;28;20208;-74
2020/12/16 01:08:23;;;;;;;65.97;29.63;;;;;;;;;;5044806;28;20219;-74
2020/12/16 01:10:48;;;;;;;72.67;30.30;;;;;;;;;;5044000;28;20708;-74
2020/12/16 01:13:13;;;;;;;55.93;27.60;;;;;;;;;;5040538;28;20230;-74
2020/12/16 01:15:38;;;;;;;73.10;31.50;;;;;;;;;;5039893;28;20178;-74
2020/12/16 01:18:05;;;;;;;71.10;29.50;;;;;;;;;;5045001;28;20179;-74
2020/12/16 01:20:30;;;;;;;89.37;32.40;;;;;;;;;;5051461;28;20213;-74
2020/12/16 01:22:55;;;;;;;56.80;29.90;;;;;;;;;;5041076;28;20244;-74
2020/12/16 01:25:21;;;;;;;61.67;29.47;;;;;;;;;;5041440;28;20722;-74
2020/12/16 01:27:52;;;;;;;69.60;30.37;;;;;;;;;;5050036;28;20181;-74
2020/12/16 01:30:17;;;;;;;59.23;28.10;;;;;;;;;;5053396;28;20248;-74
2020/12/16 01:32:43;;;;;;;54.43;28.63;;;;;;;;;;5044119;28;20289;-74
2020/12/16 01:35:08;;;;;;;52.70;27.80;;;;;;;;;;5048054;28;20201;-74
2020/12/16 01:37:34;;;;;;;49.60;27.67;;;;;;;;;;5051331;28;20188;-74
2020/12/16 01:40:00;;;;;;;61.67;29.80;;;;;;;;;;5049327;28;20205;-74
2020/12/16 01:42:25;;;;;;;65.50;31.47;;;;;;;;;;5043543;28;20700;-74
2020/12/16 01:44:50;;;;;;;62.80;30.43;;;;;;;;;;5043479;28;20583;-74
2020/12/16 01:47:16;;;;;;;62.47;31.60;;;;;;;;;;5048270;28;20204;-74
2020/12/16 01:49:42;;;;;;;63.57;32.13;;;;;;;;;;5049017;28;20280;-74
2020/12/16 01:52:07;;;;;;;77.63;34.20;;;;;;;;;;5047845;28;20311;-74
2020/12/16 01:54:33;;;;;;;73.57;32.03;;;;;;;;;;5037958;28;20177;-74
2020/12/16 01:57:00;;;;;;;101.10;39.20;;;;;;;;;;5049147;28;20213;-73
2020/12/16 01:59:25;;;;;;;81.23;35.03;;;;;;;;;;5049976;28;20189;-74
2020/12/16 02:01:51;;;;;;;65.63;33.53;;;;;;;;;;5043966;28;20701;-73
2020/12/16 02:04:18;;;;;;;108.20;39.67;;;;;;;;;;5048465;28;20182;-74
2020/12/16 02:06:44;;;;;;;81.23;33.50;;;;;;;;;;5041594;28;20192;-74
2020/12/16 02:09:10;;;;;;;83.20;36.63;;;;;;;;;;5052033;28;20214;-73
2020/12/16 02:11:36;;;;;;;112.57;40.03;;;;;;;;;;5037709;28;20232;-74
2020/12/16 02:14:06;;;;;;;102.87;38.40;;;;;;;;;;5043225;28;20220;-74
2020/12/16 02:16:31;;;;;;;79.83;35.33;;;;;;;;;;5042159;28;20626;-74
2020/12/16 02:18:56;;;;;;;70.03;34.43;;;;;;;;;;5044052;28;20204;-74
2020/12/16 02:21:21;;;;;;;104.33;37.30;;;;;;;;;;5041801;28;20199;-74
2020/12/16 02:23:50;;;;;;;109.30;38.23;;;;;;;;;;5044118;28;20203;-74
2020/12/16 02:26:15;;;;;;;90.07;35.27;;;;;;;;;;5043372;28;20237;-73
2020/12/16 02:28:41;;;;;;;75.17;36.17;;;;;;;;;;5044796;28;20197;-74
2020/12/16 02:31:07;;;;;;;108.40;38.53;;;;;;;;;;5046443;28;20639;-74
2020/12/16 02:33:33;;;;;;;105.27;36.50;;;;;;;;;;5058684;28;20190;-74
2020/12/16 02:35:58;;;;;;;86.37;36.87;;;;;;;;;;5052022;28;20170;-74
2020/12/16 02:38:23;;;;;;;102.73;38.60;;;;;;;;;;5054563;28;20249;-74
2020/12/16 02:40:49;;;;;;;69.00;35.63;;;;;;;;;;5053517;28;20249;-74
2020/12/16 02:43:14;;;;;;;71.53;33.23;;;;;;;;;;5045566;28;20202;-74
2020/12/16 02:45:39;;;;;;;102.37;35.93;;;;;;;;;;5047188;28;20240;-74
2020/12/16 02:48:04;;;;;;;84.63;31.70;;;;;;;;;;5046727;28;20602;-74
2020/12/16 02:50:29;;;;;;;165.47;40.60;;;;;;;;;;5044202;28;20197;-74
2020/12/16 02:52:54;;;;;;;100.80;33.67;;;;;;;;;;5040674;28;20224;-74
2020/12/16 02:55:20;;;;;;;109.37;34.93;;;;;;;;;;5040519;28;20232;-74
2020/12/16 02:57:45;;;;;;;120.23;32.53;;;;;;;;;;5039508;28;20178;-74
2020/12/16 03:00:10;;;;;;;199.97;42.60;;;;;;;;;;5040288;28;20264;-74
2020/12/16 03:02:35;;;;;;;92.50;30.50;;;;;;;;;;5035530;28;20663;-74
2020/12/16 03:05:00;;;;;;;154.80;34.87;;;;;;;;;;5041304;28;20169;-73
2020/12/16 03:07:25;;;;;;;95.57;30.40;;;;;;;;;;5037235;28;20663;-73
2020/12/16 03:09:51;;;;;;;136.03;35.17;;;;;;;;;;5043549;28;20923;-74
2020/12/16 03:12:16;;;;;;;77.37;29.87;;;;;;;;;;5044770;28;20601;-74
2020/12/16 03:14:42;;;;;;;74.50;28.60;;;;;;;;;;5036379;28;20182;-74
2020/12/16 03:17:08;;;;;;;93.17;31.40;;;;;;;;;;5036876;28;20182;-73
2020/12/16 03:19:33;;;;;;;70.10;31.17;;;;;;;;;;5046108;28;20186;-74
2020/12/16 03:21:58;;;;;;;91.00;29.43;;;;;;;;;;5042194;28;20710;-73
2020/12/16 03:24:23;;;;;;;64.13;29.17;;;;;;;;;;5046689;28;20284;-73
2020/12/16 03:26:48;;;;;;;113.00;32.13;;;;;;;;;;5041726;28;20182;-73
2020/12/16 03:29:14;;;;;;;74.47;30.70;;;;;;;;;;5043654;28;20214;-74
2020/12/16 03:31:39;;;;;;;85.53;30.50;;;;;;;;;;5043586;28;20227;-73
2020/12/16 03:34:04;;;;;;;114.53;32.13;;;;;;;;;;5042902;28;20255;-74
2020/12/16 03:36:29;;;;;;;142.27;33.13;;;;;;;;;;5045268;28;20173;-74
2020/12/16 03:38:54;;;;;;;89.27;29.37;;;;;;;;;;5045088;28;20170;-74
2020/12/16 03:41:20;;;;;;;94.37;33.20;;;;;;;;;;5037352;28;20213;-73
2020/12/16 03:43:49;;;;;;;101.53;29.77;;;;;;;;;;5037738;28;20209;-74
2020/12/16 03:46:14;;;;;;;69.50;28.17;;;;;;;;;;5039261;28;20186;-74
2020/12/16 03:48:40;;;;;;;83.90;31.03;;;;;;;;;;5042055;28;20208;-74
2020/12/16 03:51:06;;;;;;;78.83;27.60;;;;;;;;;;5045196;28;20196;-73
2020/12/16 03:53:33;;;;;;;61.97;29.07;;;;;;;;;;5040971;28;20197;-74
2020/12/16 03:55:58;;;;;;;82.73;29.47;;;;;;;;;;5043032;28;20210;-74
2020/12/16 03:58:23;;;;;;;139.10;33.40;;;;;;;;;;5043287;28;20209;-74
2020/12/16 04:00:48;;;;;;;178.57;35.57;;;;;;;;;;5046088;28;20186;-74
2020/12/16 04:03:13;;;;;;;140.17;33.77;;;;;;;;;;5036327;28;20622;-74
2020/12/16 04:05:38;;;;;;;141.37;33.13;;;;;;;;;;5040497;28;20444;-74
2020/12/16 04:08:04;;;;;;;101.63;32.47;;;;;;;;;;5042131;28;20259;-74
2020/12/16 04:10:29;;;;;;;80.07;28.63;;;;;;;;;;5051191;28;20181;-74
2020/12/16 04:12:54;;;;;;;85.33;28.50;;;;;;;;;;5038916;28;20289;-74
2020/12/16 04:15:19;;;;;;;145.03;32.47;;;;;;;;;;5045745;28;20213;-74
2020/12/16 04:17:44;;;;;;;80.60;29.13;;;;;;;;;;5040898;28;20233;-73
2020/12/16 04:20:11;;;;;;;127.43;33.93;;;;;;;;;;5047374;28;20881;-74
2020/12/16 04:22:36;;;;;;;97.80;30.37;;;;;;;;;;5040739;28;20204;-76
2020/12/16 04:25:01;;;;;;;125.00;30.13;;;;;;;;;;5039650;28;20178;-73
2020/12/16 04:27:26;;;;;;;98.23;29.60;;;;;;;;;;5038314;28;20203;-73
2020/12/16 04:29:51;;;;;;;74.90;29.37;;;;;;;;;;5041586;28;20194;-74
2020/12/16 04:32:16;;;;;;;197.88;37.38;;;;;;;;;;5043414;28;20198;-73
2020/12/16 04:34:42;;;;;;;121.83;31.43;;;;;;;;;;5042337;28;20174;-73
2020/12/16 04:37:07;;;;;;;91.40;29.53;;;;;;;;;;5039240;28;20182;-76
2020/12/16 04:39:32;;;;;;;144.43;34.40;;;;;;;;;;5039759;28;20742;-73
2020/12/16 04:41:58;;;;;;;140.90;34.47;;;;;;;;;;5047812;28;20180;-73
2020/12/16 04:44:23;;;;;;;125.03;34.07;;;;;;;;;;5040136;28;20192;-73
2020/12/16 04:46:48;;;;;;;109.27;32.90;;;;;;;;;;5043093;28;20375;-73
2020/12/16 04:49:13;;;;;;;98.33;28.13;;;;;;;;;;5042397;28;20279;-73
2020/12/16 04:51:41;;;;;;;49.53;25.97;;;;;;;;;;5039937;28;20178;-73
2020/12/16 04:54:06;;;;;;;91.37;30.93;;;;;;;;;;5038471;28;20205;-73
2020/12/16 04:56:35;;;;;;;93.03;29.37;;;;;;;;;;5038707;28;20734;-73
2020/12/16 04:59:00;;;;;;;92.47;26.80;;;;;;;;;;5041781;28;20284;-73
2020/12/16 05:01:25;;;;;;;121.07;31.40;;;;;;;;;;5036618;28;20204;-73
2020/12/16 05:03:50;;;;;;;43.57;27.50;;;;;;;;;;5045507;28;20213;-73
2020/12/16 05:06:51;;;;;;;88.33;33.50;;;;;;;;;;5042082;28;20174;-73
2020/12/16 05:09:17;;;;;;;140.03;35.33;;;;;;;;;;5066719;28;20217;-73
2020/12/16 05:11:44;;;;;;;65.03;26.77;;;;;;;;;;5048037;28;20190;-73
2020/12/16 05:14:10;;;;;;;79.30;27.53;;;;;;;;;;5047725;28;20288;-73
2020/12/16 05:16:53;;;;;;;147.03;32.07;;;;;;;;;;5043988;28;20525;-73
2020/12/16 05:19:40;;;;;;;87.93;28.50;;;;;;;;;;5041342;28;20181;-73
2020/12/16 05:22:17;;;;;;;44.63;24.37;;;;;;;;;;5040028;28;20578;-73
2020/12/16 05:24:47;;;;;;;112.23;30.97;;;;;;;;;;5049028;28;20264;-73
2020/12/16 05:27:16;;;;;;;58.67;27.30;;;;;;;;;;5041003;28;20277;-73
2020/12/16 05:29:42;;;;;;;96.30;29.60;;;;;;;;;;5046851;28;20686;-73
2020/12/16 05:32:17;;;;;;;111.70;32.30;;;;;;;;;;5044935;28;20208;-74
2020/12/16 05:34:42;;;;;;;83.90;26.30;;;;;;;;;;5045061;28;20204;-73
2020/12/16 05:37:40;;;;;;;135.37;31.93;;;;;;;;;;5041100;28;20733;-73
2020/12/16 05:40:07;;;;;;;96.00;29.07;;;;;;;;;;5042587;28;20698;-73
2020/12/16 05:42:32;;;;;;;92.37;30.60;;;;;;;;;;5047413;28;20263;-73
2020/12/16 05:44:58;;;;;;;109.10;29.07;;;;;;;;;;5044763;28;20178;-73
2020/12/16 05:47:24;;;;;;;80.40;28.33;;;;;;;;;;5041742;28;20178;-73
2020/12/16 05:49:50;;;;;;;112.73;30.20;;;;;;;;;;5038432;28;20216;-73
2020/12/16 05:52:16;;;;;;;68.13;29.00;;;;;;;;;;5046695;28;20244;-73
2020/12/16 05:54:41;;;;;;;76.50;26.97;;;;;;;;;;5044233;28;20231;-74
2020/12/16 05:57:19;;;;;;;37.10;22.87;;;;;;;;;;5047738;28;20613;-73
2020/12/16 06:00:03;;;;;;;44.60;23.73;;;;;;;;;;5046771;28;20722;-73
2020/12/16 06:02:35;;;;;;;68.67;25.90;;;;;;;;;;5044345;28;20217;-74
2020/12/16 06:05:01;;;;;;;86.77;26.00;;;;;;;;;;5044732;28;20240;-74
2020/12/16 06:07:28;;;;;;;73.57;25.00;;;;;;;;;;5042681;28;20284;-74
2020/12/16 06:09:55;;;;;;;56.57;25.10;;;;;;;;;;5048248;28;20219;-74
2020/12/16 06:12:24;;;;;;;63.33;24.20;;;;;;;;;;5034468;28;20217;-74
2020/12/16 06:15:02;;;;;;;46.63;23.33;;;;;;;;;;5039306;28;20604;-74
2020/12/16 06:17:29;;;;;;;104.67;28.53;;;;;;;;;;5044469;28;20410;-74
2020/12/16 06:19:54;;;;;;;114.00;30.53;;;;;;;;;;5044957;28;20266;-74
2020/12/16 06:22:22;;;;;;;73.70;27.60;;;;;;;;;;5044721;28;20292;-74
2020/12/16 06:24:48;;;;;;;74.37;25.63;;;;;;;;;;5043938;28;20770;-74
2020/12/16 06:27:18;;;;;;;54.10;26.00;;;;;;;;;;5044578;28;20260;-75
2020/12/16 06:29:45;;;;;;;71.20;27.00;;;;;;;;;;5046076;28;20580;-74
2020/12/16 06:32:16;;;;;;;57.73;25.23;;;;;;;;;;5042239;28;20268;-74
2020/12/16 06:34:45;;;;;;;71.83;27.03;;;;;;;;;;5045397;28;20181;-75
2020/12/16 06:37:14;;;;;;;61.47;26.23;;;;;;;;;;5044870;28;20177;-74
2020/12/16 06:39:39;;;;;;;91.37;26.60;;;;;;;;;;5040168;28;20181;-74
2020/12/16 06:42:04;;;;;;;74.60;26.40;;;;;;;;;;5041707;28;20204;-74
2020/12/16 06:44:30;;;;;;;89.10;26.73;;;;;;;;;;5039387;28;20201;-74
2020/12/16 06:46:56;;;;;;;56.53;25.27;;;;;;;;;;5038738;28;20181;-74
2020/12/16 06:49:21;;;;;;;53.63;25.53;;;;;;;;;;5045520;28;20210;-74
2020/12/16 06:51:47;;;;;;;55.30;24.80;;;;;;;;;;5043778;28;20208;-74
2020/12/16 06:54:13;;;;;;;85.30;25.73;;;;;;;;;;5041152;28;20198;-74
2020/12/16 06:56:39;;;;;;;70.23;27.13;;;;;;;;;;5039142;28;20591;-74
2020/12/16 06:59:05;;;;;;;65.70;24.00;;;;;;;;;;5035272;28;20179;-74
2020/12/16 07:01:30;;;;;;;76.50;24.57;;;;;;;;;;5044353;28;20189;-74
2020/12/16 07:03:55;;;;;;;99.90;25.80;;;;;;;;;;5042810;28;20201;-74
2020/12/16 07:06:29;;;;;;;67.57;22.23;;;;;;;;;;5044679;28;20189;-74
2020/12/16 07:09:13;;;;;;;60.40;21.53;;;;;;;;;;5035172;28;20198;-74
2020/12/16 07:11:39;;;;;;;74.73;24.73;;;;;;;;;;5042234;28;20201;-74
2020/12/16 07:14:08;;;;;;;54.97;22.63;;;;;;;;;;5045251;28;20698;-74
2020/12/16 07:16:34;;;;;;;89.43;26.67;;;;;;;;;;5033617;28;20200;-74
2020/12/16 07:19:00;;;;;;;58.00;25.27;;;;;;;;;;5042713;28;20576;-74
2020/12/16 07:21:25;;;;;;;81.40;24.80;;;;;;;;;;5039839;28;20234;-74
2020/12/16 07:24:04;;;;;;;54.50;21.67;;;;;;;;;;5041746;28;20201;-74
2020/12/16 07:26:31;;;;;;;41.83;22.50;;;;;;;;;;5035700;28;20231;-75
2020/12/16 07:28:57;;;;;;;72.60;25.33;;;;;;;;;;5042304;28;20347;-75
2020/12/16 07:31:23;;;;;;;60.43;23.37;;;;;;;;;;5041287;28;20656;-74
2020/12/16 07:33:48;;;;;;;52.07;22.13;;;;;;;;;;5039401;28;20296;-74
2020/12/16 07:36:17;;;;;;;52.77;22.70;;;;;;;;;;5040089;28;20184;-74
2020/12/16 07:38:49;;;;;;;46.37;21.67;;;;;;;;;;5032976;28;20170;-75
2020/12/16 07:41:24;;;;;;;53.33;23.57;;;;;;;;;;5039777;28;20191;-74
2020/12/16 07:43:49;;;;;;;48.57;22.47;;;;;;;;;;5041820;28;20249;-74
2020/12/16 07:46:15;;;;;;;42.30;21.80;;;;;;;;;;5037404;28;20174;-74
2020/12/16 07:48:43;;;;;;;44.33;22.03;;;;;;;;;;5048004;28;20206;-75
2020/12/16 07:51:09;;;;;;;42.10;22.13;;;;;;;;;;5049946;28;20177;-75
2020/12/16 07:53:34;;;;;;;55.97;24.00;;;;;;;;;;5050601;28;20250;-74
2020/12/16 07:56:03;;;;;;;41.77;22.40;;;;;;;;;;5049675;28;20177;-75
2020/12/16 07:58:32;;;;;;;45.80;22.27;;;;;;;;;;5047392;28;20173;-75
2020/12/16 08:01:14;;;;;;;47.80;23.67;;;;;;;;;;5050569;28;20682;-75
2020/12/16 08:03:40;;;;;;;45.50;22.37;;;;;;;;;;5036658;28;20193;-74
2020/12/16 08:06:05;;;;;;;40.03;23.13;;;;;;;;;;5042350;28;20264;-74
2020/12/16 08:08:31;;;;;;;42.67;24.70;;;;;;;;;;5035305;28;20208;-74
2020/12/16 08:10:57;;;;;;;45.27;24.07;;;;;;;;;;5045160;28;20177;-74
2020/12/16 08:13:26;;;;;;;46.27;22.43;;;;;;;;;;5040153;28;20209;-74
2020/12/16 08:15:51;;;;;;;46.37;23.87;;;;;;;;;;5042734;28;20651;-74
2020/12/16 08:18:18;;;;;;;47.23;23.93;;;;;;;;;;5040389;28;20186;-74
2020/12/16 08:20:43;;;;;;;48.20;25.27;;;;;;;;;;5049322;28;20205;-74
2020/12/16 08:23:10;;;;;;;44.67;24.07;;;;;;;;;;5042885;28;20248;-74
2020/12/16 08:25:36;;;;;;;43.53;23.53;;;;;;;;;;5040990;28;20178;-74
2020/12/16 08:28:04;;;;;;;41.23;23.43;;;;;;;;;;5035184;28;20233;-74
2020/12/16 08:30:30;;;;;;;40.43;23.00;;;;;;;;;;5041477;28;20746;-74
2020/12/16 08:32:55;;;;;;;35.87;21.80;;;;;;;;;;5044729;28;20198;-74
2020/12/16 08:35:21;;;;;;;34.65;23.13;;;;;;;;;;5046729;28;20182;-74
2020/12/16 08:37:48;;;;;;;39.67;22.43;;;;;;;;;;5045230;28;20173;-74
2020/12/16 08:40:14;;;;;;;38.37;23.27;;;;;;;;;;5044946;28;20186;-74
2020/12/16 08:42:39;;;;;;;35.97;22.47;;;;;;;;;;5043838;28;20253;-74
2020/12/16 08:45:06;;;;;;;31.70;19.30;;;;;;;;;;5044044;28;20841;-74
2020/12/16 08:47:32;;;;;;;36.53;22.73;;;;;;;;;;5045819;28;20213;-74
2020/12/16 08:49:57;;;;;;;35.77;20.97;;;;;;;;;;5048183;28;20268;-74
2020/12/16 08:52:22;;;;;;;34.97;22.83;;;;;;;;;;5046660;28;20690;-74
2020/12/16 08:54:47;;;;;;;33.53;22.20;;;;;;;;;;5045272;28;20456;-74
2020/12/16 08:57:12;;;;;;;33.77;21.00;;;;;;;;;;5039148;28;20235;-74
2020/12/16 08:59:38;;;;;;;38.80;23.20;;;;;;;;;;5046900;28;20189;-74
2020/12/16 09:02:03;;;;;;;36.47;22.00;;;;;;;;;;5045046;28;20213;-74
2020/12/16 09:04:28;;;;;;;32.20;20.55;;;;;;;;;;5051788;28;20166;-74
2020/12/16 09:06:57;;;;;;;32.70;20.42;;;;;;;;;;5043430;28;20193;-74
2020/12/16 09:09:22;;;;;;;28.77;20.50;;;;;;;;;;5050731;28;20228;-74
2020/12/16 09:11:48;;;;;;;30.40;20.27;;;;;;;;;;5047790;28;20610;-74
2020/12/16 09:14:14;;;;;;;35.40;21.57;;;;;;;;;;5048062;28;20205;-75
2020/12/16 09:16:39;;;;;;;30.40;21.17;;;;;;;;;;5045207;28;20250;-74
2020/12/16 09:19:04;;;;;;;33.57;23.37;;;;;;;;;;5046623;28;20178;-74
2020/12/16 09:21:34;;;;;;;31.27;21.93;;;;;;;;;;5041912;28;20235;-74
2020/12/16 09:23:59;;;;;;;33.57;23.30;;;;;;;;;;5041867;28;20208;-74
2020/12/16 09:26:35;;;;;;;31.10;22.90;;;;;;;;;;5048718;28;20252;-74
2020/12/16 09:29:00;;;;;;;29.67;21.90;;;;;;;;;;5044090;28;20687;-74
2020/12/16 09:31:25;;;;;;;27.20;20.67;;;;;;;;;;5046498;28;20239;-74
2020/12/16 09:33:55;;;;;;;20.13;17.43;;;;;;;;;;5049240;28;20254;-74
2020/12/16 09:36:23;;;;;;;21.77;16.33;;;;;;;;;;5045055;28;20181;-74
2020/12/16 09:38:53;;;;;;;18.30;15.07;;;;;;;;;;5041508;28;20189;-72
2020/12/16 09:44:30;;;;;;;15.23;13.03;;;;;;;;;;5241331;22;20241;-68
2020/12/16 09:47:14;;;;;;;16.70;14.20;;;;;;;;;;5027949;28;20553;-68
2020/12/16 09:49:40;;;;;;;12.20;10.83;;;;;;;;;;5025858;28;20215;-68
2020/12/16 09:52:05;;;;;;;13.80;12.30;;;;;;;;;;5023683;28;20194;-68
2020/12/16 09:54:31;;;;;;;13.20;10.87;;;;;;;;;;5021178;28;20198;-67
2020/12/16 09:57:09;;;;;;;10.63;9.50;;;;;;;;;;4999836;23;20239;-73
2020/12/16 09:59:34;;;;;;;10.87;9.77;;;;;;;;;;4985551;28;20191;-76
2020/12/16 10:02:00;;;;;;;12.43;9.57;;;;;;;;;;4986655;28;20238;-74
2020/12/16 10:04:25;;;;;;;14.70;9.10;;;;;;;;;;4992402;28;20266;-73
2020/12/16 10:06:50;;;;;;;11.87;8.77;;;;;;;;;;4988300;28;20405;-73
2020/12/16 10:09:15;;;;;;;10.07;9.07;;;;;;;;;;5000672;28;20203;-73
2020/12/16 10:11:45;;;;;;;10.83;9.47;;;;;;;;;;4990740;28;20176;-73
2020/12/16 10:14:11;;;;;;;9.73;8.20;;;;;;;;;;4999337;28;20674;-74
2020/12/16 10:16:36;;;;;;;8.20;7.40;;;;;;;;;;4989755;28;20200;-74
2020/12/16 10:19:02;;;;;;;8.53;7.30;;;;;;;;;;4987179;28;20194;-76
2020/12/16 10:21:27;;;;;;;10.13;8.80;;;;;;;;;;4992321;28;20179;-73
2020/12/16 10:23:52;;;;;;;7.90;7.10;;;;;;;;;;4989716;28;20199;-75
2020/12/16 10:26:17;;;;;;;8.43;6.83;;;;;;;;;;4991937;28;20285;-74
2020/12/16 10:28:42;;;;;;;9.23;7.07;;;;;;;;;;4987566;28;20465;-74
2020/12/16 10:31:07;;;;;;;9.05;7.35;;;;;;;;;;4989259;28;20429;-73
2020/12/16 10:33:33;;;;;;;7.70;6.70;;;;;;;;;;4989680;28;20618;-74
2020/12/16 10:35:58;;;;;;;8.45;7.32;;;;;;;;;;4988915;28;20233;-75
2020/12/16 10:38:23;;;;;;;7.60;6.50;;;;;;;;;;4993512;28;20183;-74
2020/12/16 10:40:49;;;;;;;7.63;6.60;;;;;;;;;;4987738;28;20225;-74
2020/12/16 10:43:14;;;;;;;7.05;6.35;;;;;;;;;;4989004;28;20281;-75
2020/12/16 10:45:39;;;;;;;6.43;5.82;;;;;;;;;;4986283;28;20571;-74
2020/12/16 10:48:05;;;;;;;6.63;6.03;;;;;;;;;;4990213;28;20180;-75
2020/12/16 10:50:30;;;;;;;6.65;5.93;;;;;;;;;;4987305;28;20172;-74
2020/12/16 10:52:56;;;;;;;6.68;6.07;;;;;;;;;;4988554;28;20685;-74
2020/12/16 10:55:21;;;;;;;5.90;5.40;;;;;;;;;;5002232;28;20269;-74
2020/12/16 10:57:47;;;;;;;7.07;6.37;;;;;;;;;;4987729;28;20222;-74
2020/12/16 11:00:12;;;;;;;7.93;7.13;;;;;;;;;;4991169;28;20820;-74
2020/12/16 11:02:37;;;;;;;8.98;6.75;;;;;;;;;;4994434;28;20178;-75
2020/12/16 11:05:03;;;;;;;7.63;6.85;;;;;;;;;;4989823;28;20278;-74
2020/12/16 11:07:28;;;;;;;7.00;6.30;;;;;;;;;;4987700;28;20459;-74
2020/12/16 11:09:54;;;;;;;8.90;6.78;;;;;;;;;;4987086;28;20208;-74
2020/12/16 11:12:19;;;;;;;8.13;7.03;;;;;;;;;;4988739;28;20211;-74
2020/12/16 11:14:44;;;;;;;7.80;7.00;;;;;;;;;;4993346;28;20174;-74
2020/12/16 11:17:09;;;;;;;10.17;7.80;;;;;;;;;;4987156;28;20452;-74
2020/12/16 11:19:34;;;;;;;7.73;6.93;;;;;;;;;;4987075;28;20676;-74
2020/12/16 11:22:00;;;;;;;10.13;7.63;;;;;;;;;;4987914;28;20568;-74
2020/12/16 11:24:27;;;;;;;8.27;7.13;;;;;;;;;;4986022;28;20230;-75
2020/12/16 11:26:52;;;;;;;6.73;6.13;;;;;;;;;;4987901;28;20208;-74
2020/12/16 11:29:19;;;;;;;7.60;6.50;;;;;;;;;;4987964;28;20218;-74
2020/12/16 11:31:45;;;;;;;8.02;6.88;;;;;;;;;;4992435;28;20180;-75
2020/12/16 11:34:10;;;;;;;7.10;6.40;;;;;;;;;;4987680;28;20187;-74
2020/12/16 11:36:38;;;;;;;8.07;7.20;;;;;;;;;;4989835;28;20249;-74
2020/12/16 11:39:03;;;;;;;8.07;5.65;;;;;;;;;;4988109;28;20215;-74
2020/12/16 11:41:28;;;;;;;8.70;6.50;;;;;;;;;;4993197;28;20179;-75
2020/12/16 11:43:54;;;;;;;7.35;6.28;;;;;;;;;;4989385;28;20187;-74
2020/12/16 11:46:19;;;;;;;7.03;6.20;;;;;;;;;;4998129;28;20218;-74
2020/12/16 11:48:45;;;;;;;8.52;6.88;;;;;;;;;;4985309;28;20613;-74
2020/12/16 11:51:11;;;;;;;7.63;6.83;;;;;;;;;;4988732;28;20261;-74
2020/12/16 11:53:36;;;;;;;8.18;7.28;;;;;;;;;;4991249;28;20207;-74
2020/12/16 11:56:01;;;;;;;9.10;7.85;;;;;;;;;;4990113;28;20235;-74
2020/12/16 11:58:28;;;;;;;7.88;7.00;;;;;;;;;;4990682;28;20198;-74
2020/12/16 12:00:53;;;;;;;8.43;7.60;;;;;;;;;;4987561;28;20175;-74
2020/12/16 12:03:18;;;;;;;9.15;7.72;;;;;;;;;;4984281;28;20687;-74
2020/12/16 12:05:43;;;;;;;9.80;8.17;;;;;;;;;;4986695;28;20308;-74
2020/12/16 12:08:08;;;;;;;8.63;7.35;;;;;;;;;;4990251;28;20191;-74
2020/12/16 12:10:34;;;;;;;8.80;7.55;;;;;;;;;;4987480;28;20652;-74
2020/12/16 12:12:59;;;;;;;9.93;7.82;;;;;;;;;;4991525;28;20194;-74
2020/12/16 12:15:25;;;;;;;9.35;7.55;;;;;;;;;;4991272;28;20690;-74
2020/12/16 12:17:50;;;;;;;9.40;7.47;;;;;;;;;;4988773;28;20184;-74
2020/12/16 12:20:15;;;;;;;9.68;7.55;;;;;;;;;;4989105;28;20188;-74
2020/12/16 12:22:40;;;;;;;8.23;7.43;;;;;;;;;;4998402;28;20182;-74
2020/12/16 12:25:05;;;;;;;8.75;7.85;;;;;;;;;;4993176;28;20649;-74
2020/12/16 12:27:31;;;;;;;10.38;8.15;;;;;;;;;;4990128;28;20202;-74
2020/12/16 12:29:56;;;;;;;9.20;8.07;;;;;;;;;;4991033;28;20214;-74
2020/12/16 12:32:21;;;;;;;9.52;8.38;;;;;;;;;;4995808;28;20732;-74
2020/12/16 12:34:46;;;;;;;9.02;8.13;;;;;;;;;;4989560;28;20192;-74
2020/12/16 12:37:11;;;;;;;10.32;8.70;;;;;;;;;;4994786;28;20288;-74
2020/12/16 12:39:36;;;;;;;12.30;8.77;;;;;;;;;;4990693;28;20179;-74
2020/12/16 12:42:02;;;;;;;9.50;8.05;;;;;;;;;;4989092;28;20195;-74
2020/12/16 12:44:27;;;;;;;8.63;7.72;;;;;;;;;;4989364;28;20179;-74
2020/12/16 12:46:52;;;;;;;9.63;8.63;;;;;;;;;;4989243;28;20270;-74
2020/12/16 12:49:17;;;;;;;10.52;8.95;;;;;;;;;;4991151;28;20234;-74
2020/12/16 12:51:49;;;;;;;9.40;8.40;;;;;;;;;;4994854;28;20234;-75
2020/12/16 12:54:14;;;;;;;10.77;9.38;;;;;;;;;;4986203;28;20593;-74
2020/12/16 12:56:39;;;;;;;11.52;9.18;;;;;;;;;;4992327;28;20206;-75
2020/12/16 12:59:04;;;;;;;9.80;8.63;;;;;;;;;;4991523;28;20196;-75
2020/12/16 13:01:29;;;;;;;9.90;8.70;;;;;;;;;;4990027;28;20439;-74
2020/12/16 13:03:55;;;;;;;11.57;9.00;;;;;;;;;;4994183;28;20591;-74
2020/12/16 13:06:20;;;;;;;11.23;9.37;;;;;;;;;;4987901;28;20238;-74
2020/12/16 13:08:45;;;;;;;10.30;9.13;;;;;;;;;;4989994;28;20298;-74
2020/12/16 13:11:11;;;;;;;9.87;8.77;;;;;;;;;;4990982;28;20191;-75
2020/12/16 13:13:36;;;;;;;9.63;8.63;;;;;;;;;;4991668;28;20672;-75
2020/12/16 13:16:01;;;;;;;9.43;8.53;;;;;;;;;;4986008;28;20210;-74
2020/12/16 13:18:27;;;;;;;10.50;9.17;;;;;;;;;;4993154;28;20184;-74
2020/12/16 13:20:56;;;;;;;12.63;9.43;;;;;;;;;;4990602;28;20180;-75
2020/12/16 13:23:22;;;;;;;11.43;9.43;;;;;;;;;;4994783;28;20191;-75
2020/12/16 13:25:47;;;;;;;11.10;9.57;;;;;;;;;;4996512;28;20404;-74
2020/12/16 13:28:12;;;;;;;11.03;9.33;;;;;;;;;;4992583;28;20192;-74
2020/12/16 13:30:37;;;;;;;14.73;9.70;;;;;;;;;;4990475;28;20269;-74
2020/12/16 13:33:02;;;;;;;9.07;8.07;;;;;;;;;;4991699;28;20193;-75
2020/12/16 13:35:28;;;;;;;10.93;9.37;;;;;;;;;;4991503;28;20247;-75
2020/12/16 13:37:53;;;;;;;13.17;10.40;;;;;;;;;;4995652;28;20184;-75
2020/12/16 13:40:18;;;;;;;11.07;9.00;;;;;;;;;;4986327;28;20723;-75
2020/12/16 13:42:43;;;;;;;14.57;10.27;;;;;;;;;;4990687;28;20184;-75
2020/12/16 13:45:08;;;;;;;12.27;10.50;;;;;;;;;;4989529;28;20223;-74
2020/12/16 13:47:33;;;;;;;10.87;9.17;;;;;;;;;;4992239;28;20245;-74
2020/12/16 13:49:59;;;;;;;14.33;9.50;;;;;;;;;;4991542;28;20242;-74
2020/12/16 13:52:24;;;;;;;12.77;9.57;;;;;;;;;;4989331;28;20179;-74
2020/12/16 13:54:49;;;;;;;14.83;9.63;;;;;;;;;;4985209;28;20199;-74
2020/12/16 13:57:14;;;;;;;12.20;9.73;;;;;;;;;;4985649;28;20223;-74
2020/12/16 13:59:39;;;;;;;14.70;10.07;;;;;;;;;;4989579;28;20190;-75
2020/12/16 14:02:05;;;;;;;15.60;10.33;;;;;;;;;;4988894;28;20727;-74
2020/12/16 14:04:30;;;;;;;12.17;9.53;;;;;;;;;;4987823;28;20693;-75
2020/12/16 14:06:55;;;;;;;18.60;10.60;;;;;;;;;;4984665;28;20237;-74
2020/12/16 14:09:21;;;;;;;14.33;9.60;;;;;;;;;;4987542;28;20234;-74
2020/12/16 14:11:46;;;;;;;12.93;9.77;;;;;;;;;;4990772;28;20278;-75
2020/12/16 14:14:11;;;;;;;14.60;10.40;;;;;;;;;;4989550;28;20633;-75
2020/12/16 14:16:36;;;;;;;14.80;11.10;;;;;;;;;;4990208;28;20191;-74
2020/12/16 14:19:02;;;;;;;13.30;10.13;;;;;;;;;;4989442;28;20192;-74